createdAt,value
2022-11-14T00:01:30.660Z,101691.26
2022-11-14T00:03:58.919Z,101688.42
2022-11-14T00:06:27.147Z,101688.35
2022-11-14T00:08:55.378Z,101689.36
2022-11-14T00:11:23.668Z,101692.20
2022-11-14T00:13:51.871Z,101689.80
2022-11-14T00:16:20.100Z,101689.66
2022-11-14T00:18:48.327Z,101687.58
2022-11-14T00:21:16.480Z,101689.54
2022-11-14T00:23:44.946Z,101688.17
2022-11-14T00:26:13.002Z,101686.14
2022-11-14T00:28:41.128Z,101683.38
2022-11-14T00:31:10.778Z,101686.98
2022-11-14T00:33:38.990Z,101685.21
2022-11-14T00:36:07.535Z,101681.73
2022-11-14T00:38:35.660Z,101680.33
2022-11-14T00:41:04.213Z,101679.58
2022-11-14T00:43:32.692Z,101680.61
2022-11-14T00:46:00.905Z,101677.52
2022-11-14T00:48:29.210Z,101676.26
2022-11-14T00:50:57.765Z,101677.23
2022-11-14T00:53:25.978Z,101672.48
2022-11-14T00:55:53.915Z,101670.96
2022-11-14T00:58:22.167Z,101669.48
2022-11-14T01:00:50.417Z,101666.27
2022-11-14T01:03:18.737Z,101660.02
2022-11-14T01:05:49.838Z,101654.48
2022-11-14T01:08:19.627Z,101657.77
2022-11-14T01:10:50.388Z,101659.52
2022-11-14T01:13:19.505Z,101652.55
2022-11-14T01:15:49.317Z,101651.86
2022-11-14T01:18:20.998Z,101650.39
2022-11-14T01:20:49.444Z,101648.92
2022-11-14T01:23:18.050Z,101644.34
2022-11-14T01:25:46.711Z,101645.12
2022-11-14T01:28:19.857Z,101641.75
2022-11-14T01:30:48.095Z,101639.04
2022-11-14T01:33:16.168Z,101634.27
2022-11-14T01:35:44.331Z,101633.37
2022-11-14T01:38:14.916Z,101631.44
2022-11-14T01:40:45.177Z,101628.20
2022-11-14T01:43:19.380Z,101626.55
2022-11-14T01:45:52.388Z,101626.77
2022-11-14T01:48:39.107Z,101623.45
2022-11-14T01:51:16.010Z,101619.58
2022-11-14T01:53:46.796Z,101617.60
2022-11-14T01:56:32.936Z,101619.44
2022-11-14T01:59:15.930Z,101613.52
2022-11-14T02:01:52.551Z,101611.52
2022-11-14T02:04:46.315Z,101611.83
2022-11-14T02:07:15.395Z,101607.17
2022-11-14T02:09:47.487Z,101608.41
2022-11-14T02:12:18.078Z,101604.47
2022-11-14T02:14:49.676Z,101609.67
2022-11-14T02:17:34.972Z,101603.71
2022-11-14T02:20:12.268Z,101597.75
2022-11-14T02:22:42.994Z,101598.88
2022-11-14T02:25:15.067Z,101599.94
2022-11-14T02:27:44.034Z,101602.90
2022-11-14T02:30:18.581Z,101594.63
2022-11-14T02:35:35.304Z,101588.63
2022-11-14T02:38:03.316Z,101587.80
2022-11-14T02:40:31.545Z,101586.72
2022-11-14T02:42:59.748Z,101585.65
2022-11-14T02:45:28.614Z,101588.98
2022-11-14T02:47:56.862Z,101586.08
2022-11-14T02:50:25.035Z,101581.71
2022-11-14T02:52:54.399Z,101578.85
2022-11-14T02:55:22.569Z,101577.42
2022-11-14T02:57:50.736Z,101577.27
2022-11-14T03:00:19.475Z,101572.23
2022-11-14T03:02:47.735Z,101568.63
2022-11-14T03:05:16.235Z,101566.11
2022-11-14T03:07:44.386Z,101567.13
2022-11-14T03:10:14.109Z,101566.79
2022-11-14T03:12:42.421Z,101565.77
2022-11-14T03:15:11.539Z,101562.80
2022-11-14T03:17:40.149Z,101562.02
2022-11-14T03:20:09.302Z,101560.97
2022-11-14T03:22:37.500Z,101558.30
2022-11-14T03:25:06.828Z,101555.48
2022-11-14T03:27:34.878Z,101558.77
2022-11-14T03:30:03.300Z,101560.56
2022-11-14T03:32:31.378Z,101559.92
2022-11-14T03:34:59.636Z,101554.29
2022-11-14T03:37:27.908Z,101555.69
2022-11-14T03:39:55.997Z,101556.92
2022-11-14T03:42:24.005Z,101556.30
2022-11-14T03:44:52.155Z,101554.63
2022-11-14T03:47:20.294Z,101554.57
2022-11-14T03:49:48.308Z,101552.96
2022-11-14T03:52:16.589Z,101551.92
2022-11-14T03:54:44.699Z,101547.36
2022-11-14T03:57:12.926Z,101541.09
2022-11-14T03:59:40.866Z,101543.17
2022-11-14T04:02:09.246Z,101542.29
2022-11-14T04:04:37.378Z,101537.10
2022-11-14T04:07:06.709Z,101535.30
2022-11-14T04:09:35.047Z,101537.48
2022-11-14T04:12:03.178Z,101535.20
2022-11-14T04:14:31.403Z,101532.36
2022-11-14T04:16:59.532Z,101532.75
2022-11-14T04:19:27.566Z,101536.54
2022-11-14T04:21:55.785Z,101537.45
2022-11-14T04:24:23.889Z,101536.10
2022-11-14T04:26:52.005Z,101534.98
2022-11-14T04:29:20.288Z,101530.20
2022-11-14T04:31:48.615Z,101529.91
2022-11-14T04:34:17.023Z,101527.25
2022-11-14T04:36:45.024Z,101526.04
2022-11-14T04:39:13.345Z,101522.52
2022-11-14T04:41:41.604Z,101521.44
2022-11-14T04:44:09.860Z,101520.27
2022-11-14T04:46:38.006Z,101521.73
2022-11-14T04:49:06.140Z,101521.83
2022-11-14T04:51:34.320Z,101522.27
2022-11-14T04:54:03.241Z,101520.37
2022-11-14T04:56:31.540Z,101518.61
2022-11-14T04:58:59.963Z,101513.73
2022-11-14T05:01:28.493Z,101508.95
2022-11-14T05:03:56.796Z,101509.45
2022-11-14T05:06:25.013Z,101511.02
2022-11-14T05:08:53.339Z,101512.05
2022-11-14T05:11:25.319Z,101508.21
2022-11-14T05:13:57.666Z,101505.18
2022-11-14T05:16:26.087Z,101503.77
2022-11-14T05:18:55.250Z,101505.54
2022-11-14T05:21:23.334Z,101503.91
2022-11-14T05:23:51.486Z,101504.42
2022-11-14T05:26:19.769Z,101505.41
2022-11-14T05:28:48.101Z,101500.80
2022-11-14T05:31:19.698Z,101500.61
2022-11-14T05:33:48.227Z,101497.56
2022-11-14T05:36:17.279Z,101499.07
2022-11-14T05:38:45.683Z,101497.32
2022-11-14T05:41:16.876Z,101496.92
2022-11-14T05:43:45.067Z,101498.62
2022-11-14T05:46:15.360Z,101500.32
2022-11-14T05:48:43.900Z,101503.42
2022-11-14T05:51:13.387Z,101504.42
2022-11-14T05:53:42.245Z,101508.84
2022-11-14T05:56:13.119Z,101508.77
2022-11-14T05:58:41.540Z,101506.52
2022-11-14T06:01:15.895Z,101501.21
2022-11-14T06:03:47.247Z,101502.39
2022-11-14T06:06:18.920Z,101507.48
2022-11-14T06:08:47.952Z,101509.32
2022-11-14T06:11:21.344Z,101509.59
2022-11-14T06:13:49.597Z,101508.52
2022-11-14T06:16:25.807Z,101513.08
2022-11-14T06:18:54.522Z,101507.92
2022-11-14T06:21:24.871Z,101512.56
2022-11-14T06:23:53.400Z,101511.68
2022-11-14T06:26:22.860Z,101513.90
2022-11-14T06:28:52.878Z,101517.92
2022-11-14T06:31:23.566Z,101522.34
2022-11-14T06:33:52.267Z,101516.73
2022-11-14T06:36:20.773Z,101518.23
2022-11-14T06:38:48.932Z,101523.63
2022-11-14T06:41:19.428Z,101524.30
2022-11-14T06:43:51.121Z,101526.20
2022-11-14T06:46:21.544Z,101527.05
2022-11-14T06:48:50.938Z,101527.33
2022-11-14T06:51:20.047Z,101534.33
2022-11-14T06:53:48.246Z,101527.73
2022-11-14T06:56:18.416Z,101527.14
2022-11-14T06:58:50.826Z,101529.84
2022-11-14T07:01:26.321Z,101528.42
2022-11-14T07:03:55.261Z,101529.48
2022-11-14T07:06:26.616Z,101527.20
2022-11-14T07:08:56.716Z,101525.31
2022-11-14T07:11:30.726Z,101525.77
2022-11-14T07:14:00.878Z,101525.84
2022-11-14T07:16:31.837Z,101528.52
2022-11-14T07:19:04.839Z,101522.41
2022-11-14T07:21:35.045Z,101526.58
2022-11-14T07:24:03.202Z,101524.02
2022-11-14T07:26:31.936Z,101520.48
2022-11-14T07:29:02.515Z,101520.51
2022-11-14T07:31:31.613Z,101517.93
2022-11-14T07:33:59.796Z,101515.45
2022-11-14T07:36:27.883Z,101516.58
2022-11-14T07:38:56.026Z,101516.95
2022-11-14T07:41:24.098Z,101516.35
2022-11-14T07:43:52.339Z,101511.36
2022-11-14T07:46:20.747Z,101506.79
2022-11-14T07:48:48.936Z,101509.43
2022-11-14T07:51:20.346Z,101509.02
2022-11-14T07:53:48.572Z,101512.04
2022-11-14T07:56:17.305Z,101511.79
2022-11-14T07:58:45.554Z,101510.20
2022-11-14T08:01:14.922Z,101513.57
2022-11-14T08:03:46.000Z,101513.09
2022-11-14T08:06:16.737Z,101510.48
2022-11-14T08:08:45.167Z,101508.36
2022-11-14T08:11:15.089Z,101506.30
2022-11-14T08:13:51.866Z,101507.14
2022-11-14T08:16:20.025Z,101503.23
2022-11-14T08:18:48.275Z,101502.38
2022-11-14T08:21:16.479Z,101497.86
2022-11-14T08:23:45.614Z,101496.27
2022-11-14T08:26:13.618Z,101491.69
2022-11-14T08:28:41.761Z,101491.69
2022-11-14T08:31:10.467Z,101490.66
2022-11-14T08:33:38.715Z,101487.73
2022-11-14T08:36:07.865Z,101487.42
2022-11-14T08:38:36.034Z,101488.20
2022-11-14T08:41:04.814Z,101486.77
2022-11-14T08:43:33.199Z,101479.70
2022-11-14T08:46:04.519Z,101475.75
2022-11-14T08:48:33.446Z,101480.01
2022-11-14T08:51:04.801Z,101474.71
2022-11-14T08:53:34.392Z,101473.29
2022-11-14T08:56:03.213Z,101477.17
2022-11-14T08:58:33.020Z,101474.55
2022-11-14T09:01:03.565Z,101475.23
2022-11-14T09:03:32.269Z,101477.80
2022-11-14T09:06:01.431Z,101475.55
2022-11-14T09:08:30.246Z,101471.48
2022-11-14T09:11:05.666Z,101468.02
2022-11-14T09:13:35.041Z,101466.13
2022-11-14T09:16:03.137Z,101462.77
2022-11-14T09:18:32.170Z,101457.55
2022-11-14T09:21:03.867Z,101457.07
2022-11-14T09:23:32.937Z,101453.66
2022-11-14T09:26:09.506Z,101453.09
2022-11-14T09:28:38.050Z,101448.63
2022-11-14T09:31:20.521Z,101444.93
2022-11-14T09:33:48.836Z,101440.86
2022-11-14T09:36:18.935Z,101439.85
2022-11-14T09:38:47.348Z,101438.30
2022-11-14T09:41:35.195Z,101439.60
2022-11-14T09:44:41.598Z,101433.88
2022-11-14T09:47:20.705Z,101430.89
2022-11-14T09:49:54.953Z,101431.70
2022-11-14T09:52:37.252Z,101428.39
2022-11-14T09:55:17.876Z,101425.37
2022-11-14T09:57:47.154Z,101423.17
2022-11-14T10:00:25.752Z,101423.05
2022-11-14T10:03:18.681Z,101427.83
2022-11-14T10:05:55.544Z,101429.91
2022-11-14T10:08:52.865Z,101424.08
2022-11-14T10:11:29.826Z,101422.99
2022-11-14T10:14:16.434Z,101419.15
2022-11-14T10:17:16.592Z,101417.71
2022-11-14T10:19:55.058Z,101417.86
2022-11-14T10:22:38.140Z,101414.66
2022-11-14T10:25:26.431Z,101414.61
2022-11-14T10:28:13.233Z,101412.50
2022-11-14T10:30:56.097Z,101414.70
2022-11-14T10:33:33.832Z,101413.52
2022-11-14T10:36:18.615Z,101406.50
2022-11-14T10:39:21.996Z,101409.55
2022-11-14T10:42:14.219Z,101404.35
2022-11-14T10:45:07.506Z,101402.73
2022-11-14T10:47:44.790Z,101398.91
2022-11-14T10:50:53.028Z,101392.21
2022-11-14T10:53:44.375Z,101386.32
2022-11-14T10:56:13.275Z,101382.62
2022-11-14T10:58:48.712Z,101377.27
2022-11-14T11:01:57.398Z,101375.99
2022-11-14T11:04:32.596Z,101372.08
2022-11-14T11:07:06.858Z,101378.98
2022-11-14T11:10:00.379Z,101376.16
2022-11-14T11:12:37.497Z,101373.39
2022-11-14T11:15:28.569Z,101363.15
2022-11-14T11:18:20.862Z,101359.02
2022-11-14T11:21:03.746Z,101357.50
2022-11-14T11:23:32.295Z,101350.73
2022-11-14T11:26:08.263Z,101352.27
2022-11-14T11:28:37.163Z,101349.52
2022-11-14T11:31:11.345Z,101346.83
2022-11-14T11:33:40.238Z,101339.29
2022-11-14T11:36:18.618Z,101336.25
2022-11-14T11:38:53.538Z,101332.72
2022-11-14T11:44:18.940Z,101320.21
2022-11-14T11:47:01.443Z,101325.98
2022-11-14T11:49:53.524Z,101325.58
2022-11-14T11:52:40.748Z,101316.90
2022-11-14T11:55:08.912Z,101317.33
2022-11-14T11:57:47.242Z,101313.45
2022-11-14T12:00:21.837Z,101307.73
2022-11-14T12:02:58.374Z,101301.48
2022-11-14T12:05:55.739Z,101300.21
2022-11-14T12:08:55.096Z,101302.52
2022-11-14T12:11:36.775Z,101302.79
2022-11-14T12:14:28.926Z,101301.51
2022-11-14T12:17:16.273Z,101298.31
2022-11-14T12:20:16.338Z,101295.23
2022-11-14T12:23:06.017Z,101298.09
2022-11-14T12:25:58.816Z,101294.50
2022-11-14T12:28:59.668Z,101297.11
2022-11-14T12:31:32.366Z,101301.02
2022-11-14T12:34:06.465Z,101296.84
2022-11-14T12:36:35.320Z,101294.14
2022-11-14T12:39:04.416Z,101292.05
2022-11-14T12:41:38.765Z,101292.37
2022-11-14T12:44:31.200Z,101295.12
2022-11-14T12:47:05.632Z,101293.00
2022-11-14T12:49:46.999Z,101294.42
2022-11-14T12:52:40.260Z,101296.52
2022-11-14T12:55:26.950Z,101295.43
2022-11-14T12:58:09.313Z,101288.92
2022-11-14T13:00:50.780Z,101288.92
2022-11-14T13:03:52.205Z,101290.16
2022-11-14T13:06:33.748Z,101290.98
2022-11-14T13:09:41.892Z,101293.90
2022-11-14T13:12:40.900Z,101293.70
2022-11-14T13:15:48.432Z,101294.48
2022-11-14T13:18:43.978Z,101293.17
2022-11-14T13:21:46.930Z,101285.04
2022-11-14T13:24:50.071Z,101289.34
2022-11-14T13:28:06.606Z,101287.09
2022-11-14T13:31:10.456Z,101285.58
2022-11-14T13:33:52.136Z,101281.70
2022-11-14T13:36:53.691Z,101278.42
2022-11-14T13:39:45.255Z,101272.65
2022-11-14T13:42:28.285Z,101274.40
2022-11-14T13:45:05.072Z,101274.87
2022-11-14T13:48:05.400Z,101273.66
2022-11-14T13:50:37.179Z,101280.61
2022-11-14T13:53:15.753Z,101276.92
2022-11-14T13:56:04.706Z,101274.69
2022-11-14T13:58:54.380Z,101276.98
2022-11-14T14:02:22.517Z,101276.20
2022-11-14T14:05:35.029Z,101279.34
2022-11-14T14:08:33.146Z,101272.14
2022-11-14T14:11:32.197Z,101268.34
2022-11-14T14:14:42.251Z,101266.70
2022-11-14T14:17:36.381Z,101263.91
2022-11-14T14:20:28.419Z,101260.00
2022-11-14T14:23:29.081Z,101255.80
2022-11-14T14:26:56.056Z,101248.46
2022-11-14T14:29:58.386Z,101245.06
2022-11-14T14:33:09.178Z,101242.20
2022-11-14T14:35:58.305Z,101234.59
2022-11-14T14:38:48.280Z,101226.54
2022-11-14T14:41:38.121Z,101227.55
2022-11-14T14:44:37.153Z,101226.79
2022-11-14T14:47:41.697Z,101228.98
2022-11-14T14:50:39.959Z,101223.12
2022-11-14T14:53:34.863Z,101221.92
2022-11-14T14:56:25.459Z,101219.14
2022-11-14T14:59:21.379Z,101216.39
2022-11-14T15:02:32.094Z,101215.86
2022-11-14T15:05:29.291Z,101214.01
2022-11-14T15:08:00.871Z,101214.55
2022-11-14T15:10:32.127Z,101220.45
2022-11-14T15:13:00.521Z,101211.98
2022-11-14T15:15:30.627Z,101214.30
2022-11-14T15:18:06.462Z,101214.02
2022-11-14T15:20:34.863Z,101216.48
2022-11-14T15:23:08.618Z,101205.92
2022-11-14T15:25:38.346Z,101202.50
2022-11-14T15:28:17.290Z,101197.39
2022-11-14T15:31:06.300Z,101198.13
2022-11-14T15:33:41.807Z,101194.48
2022-11-14T15:36:18.717Z,101189.93
2022-11-14T15:39:25.912Z,101187.52
2022-11-14T15:42:15.256Z,101189.76
2022-11-14T15:44:43.814Z,101185.58
2022-11-14T15:47:18.120Z,101183.20
2022-11-14T15:50:04.876Z,101181.59
2022-11-14T15:52:39.997Z,101180.67
2022-11-14T15:55:17.535Z,101172.39
2022-11-14T15:57:52.006Z,101172.69
2022-11-14T16:00:34.341Z,101164.36
2022-11-14T16:03:02.626Z,101153.30
2022-11-14T16:05:31.632Z,101151.55
2022-11-14T16:07:59.900Z,101154.52
2022-11-14T16:10:28.521Z,101158.80
2022-11-14T16:12:56.867Z,101157.17
2022-11-14T16:15:25.248Z,101152.77
2022-11-14T16:17:53.552Z,101149.77
2022-11-14T16:20:28.288Z,101153.04
2022-11-14T16:22:56.987Z,101148.02
2022-11-14T16:25:28.578Z,101148.58
2022-11-14T16:27:56.941Z,101146.23
2022-11-14T16:30:26.579Z,101138.39
2022-11-14T16:32:55.066Z,101134.70
2022-11-14T16:35:42.026Z,101130.45
2022-11-14T16:38:14.383Z,101128.13
2022-11-14T16:41:01.271Z,101131.20
2022-11-14T16:43:29.946Z,101129.52
2022-11-14T16:46:17.944Z,101128.41
2022-11-14T16:48:46.681Z,101127.77
2022-11-14T16:51:46.997Z,101128.96
2022-11-14T16:54:17.048Z,101129.17
2022-11-14T16:57:05.166Z,101121.52
2022-11-14T16:59:40.412Z,101125.86
2022-11-14T17:02:27.769Z,101120.77
2022-11-14T17:04:56.117Z,101124.73
2022-11-14T17:07:44.076Z,101123.14
2022-11-14T17:10:12.792Z,101116.96
2022-11-14T17:12:59.975Z,101114.66
2022-11-14T17:15:28.367Z,101111.55
2022-11-14T17:18:15.086Z,101121.75
2022-11-14T17:20:44.298Z,101114.90
2022-11-14T17:23:21.730Z,101116.09
2022-11-14T17:25:49.944Z,101112.88
2022-11-14T17:28:20.988Z,101106.23
2022-11-14T17:31:09.129Z,101103.62
2022-11-14T17:33:38.258Z,101104.21
2022-11-14T17:36:28.621Z,101103.05
2022-11-14T17:38:57.891Z,101103.33
2022-11-14T17:41:44.997Z,101100.38
2022-11-14T17:44:13.477Z,101097.87
2022-11-14T17:47:00.445Z,101097.86
2022-11-14T17:49:28.694Z,101099.65
2022-11-14T17:52:15.900Z,101095.93
2022-11-14T17:54:44.219Z,101093.29
2022-11-14T17:57:31.465Z,101085.40
2022-11-14T18:00:03.421Z,101095.52
2022-11-14T18:02:50.735Z,101089.16
2022-11-14T18:05:19.378Z,101083.98
2022-11-14T18:07:56.727Z,101083.13
2022-11-14T18:10:43.920Z,101086.08
2022-11-14T18:13:12.322Z,101088.48
2022-11-14T18:16:04.517Z,101087.16
2022-11-14T18:18:34.490Z,101082.66
2022-11-14T18:21:23.857Z,101082.80
2022-11-14T18:23:58.881Z,101077.66
2022-11-14T18:26:45.687Z,101079.58
2022-11-14T18:29:15.858Z,101077.51
2022-11-14T18:32:02.897Z,101073.39
2022-11-14T18:34:31.273Z,101070.77
2022-11-14T18:37:18.792Z,101065.87
2022-11-14T18:39:47.142Z,101059.76
2022-11-14T18:42:34.043Z,101055.42
2022-11-14T18:45:02.860Z,101053.92
2022-11-14T18:47:49.801Z,101056.81
2022-11-14T18:50:18.052Z,101053.59
2022-11-14T18:53:05.625Z,101055.85
2022-11-14T18:55:34.012Z,101052.55
2022-11-14T18:58:24.376Z,101049.34
2022-11-14T19:00:52.640Z,101048.17
2022-11-14T19:03:20.991Z,101048.90
2022-11-14T19:06:10.750Z,101048.27
2022-11-14T19:08:40.040Z,101044.64
2022-11-14T19:11:38.010Z,101043.80
2022-11-14T19:14:25.060Z,101045.02
2022-11-14T19:16:54.137Z,101036.71
2022-11-14T19:19:41.458Z,101034.90
2022-11-14T19:22:09.676Z,101033.25
2022-11-14T19:24:58.208Z,101033.92
2022-11-14T19:27:26.562Z,101033.73
2022-11-14T19:30:16.001Z,101032.13
2022-11-14T19:32:44.217Z,101022.95
2022-11-14T19:35:31.002Z,101018.67
2022-11-14T19:38:17.989Z,101017.31
2022-11-14T19:40:51.176Z,101013.98
2022-11-14T19:43:38.736Z,101013.64
2022-11-14T19:46:07.715Z,101009.55
2022-11-14T19:48:59.932Z,101010.36
2022-11-14T19:51:29.377Z,101010.58
2022-11-14T19:54:16.549Z,101009.34
2022-11-14T19:56:44.756Z,101004.08
2022-11-14T19:59:31.899Z,100999.45
2022-11-14T20:02:00.431Z,100996.95
2022-11-14T20:04:47.256Z,100994.76
2022-11-14T20:07:15.421Z,100992.10
2022-11-14T20:10:04.637Z,100991.39
2022-11-14T20:12:33.427Z,100987.68
2022-11-14T20:15:20.545Z,100987.15
2022-11-14T20:17:48.560Z,100987.22
2022-11-14T20:20:35.324Z,100983.59
2022-11-14T20:23:04.020Z,100978.76
2022-11-14T20:25:53.129Z,100979.39
2022-11-14T20:28:21.200Z,100983.69
2022-11-14T20:31:03.329Z,100972.23
2022-11-14T20:33:52.297Z,100970.33
2022-11-14T20:36:25.089Z,100970.03
2022-11-14T20:39:12.171Z,100962.30
2022-11-14T20:41:40.248Z,100954.06
2022-11-14T20:44:26.896Z,100951.73
2022-11-14T20:46:57.336Z,100947.44
2022-11-14T20:49:44.493Z,100945.54
2022-11-14T20:52:12.772Z,100943.02
2022-11-14T20:55:00.590Z,100939.00
2022-11-14T20:57:28.887Z,100941.69
2022-11-14T21:00:16.963Z,100939.02
2022-11-14T21:03:03.951Z,100933.90
2022-11-14T21:05:32.198Z,100932.93
2022-11-14T21:08:19.451Z,100929.10
2022-11-14T21:10:51.040Z,100920.77
2022-11-14T21:13:59.333Z,100920.55
2022-11-14T21:16:35.312Z,100913.65
2022-11-14T21:19:22.975Z,100915.10
2022-11-14T21:21:51.537Z,100909.59
2022-11-14T21:24:39.753Z,100906.63
2022-11-14T21:27:11.615Z,100905.71
2022-11-14T21:29:39.820Z,100909.41
2022-11-14T21:32:27.065Z,100902.50
2022-11-14T21:34:55.572Z,100901.39
2022-11-14T21:37:42.277Z,100896.91
2022-11-14T21:40:11.334Z,100891.73
2022-11-14T21:42:58.535Z,100887.38
2022-11-14T21:45:29.857Z,100884.70
2022-11-14T21:48:16.797Z,100885.85
2022-11-14T21:50:45.556Z,100886.02
2022-11-14T21:53:33.656Z,100879.84
2022-11-14T21:56:15.225Z,100879.70
2022-11-14T21:59:13.201Z,100879.77
2022-11-14T22:02:05.255Z,100878.94
2022-11-14T22:04:33.683Z,100878.60
2022-11-14T22:07:05.065Z,100877.26
2022-11-14T22:09:34.405Z,100867.70
2022-11-14T22:12:03.066Z,100869.35
2022-11-14T22:14:31.552Z,100864.73
2022-11-14T22:17:00.145Z,100860.33
2022-11-14T22:19:28.436Z,100860.70
2022-11-14T22:21:56.737Z,100862.59
2022-11-14T22:24:24.954Z,100861.40
2022-11-14T22:26:52.939Z,100857.59
2022-11-14T22:29:21.206Z,100857.81
2022-11-14T22:31:53.106Z,100859.14
2022-11-14T22:34:21.378Z,100855.81
2022-11-14T22:36:49.596Z,100854.95
2022-11-14T22:39:17.777Z,100852.92
2022-11-14T22:41:45.943Z,100854.11
2022-11-14T22:44:14.200Z,100852.30
2022-11-14T22:46:42.461Z,100848.23
2022-11-14T22:49:10.873Z,100845.35
2022-11-14T22:51:39.042Z,100842.80
2022-11-14T22:54:07.180Z,100839.19
2022-11-14T22:56:35.390Z,100838.25
2022-11-14T22:59:03.616Z,100842.52
2022-11-14T23:01:33.207Z,100833.67
2022-11-14T23:04:03.994Z,100832.84
2022-11-14T23:06:34.366Z,100831.40
2022-11-14T23:09:03.618Z,100830.64
2022-11-14T23:11:33.143Z,100830.07
2022-11-14T23:14:02.015Z,100828.10
2022-11-14T23:16:33.406Z,100823.43
2022-11-14T23:19:05.438Z,100823.81
2022-11-14T23:21:36.461Z,100825.38
2022-11-14T23:24:08.931Z,100819.30
2022-11-14T23:26:37.697Z,100820.09
2022-11-14T23:29:05.817Z,100821.31
2022-11-14T23:31:37.190Z,100815.05
2022-11-14T23:34:05.327Z,100812.11
2022-11-14T23:36:33.458Z,100809.74
2022-11-14T23:39:01.635Z,100813.19
2022-11-14T23:41:29.837Z,100812.80
2022-11-14T23:43:58.086Z,100809.60
2022-11-14T23:46:27.013Z,100809.55
2022-11-14T23:48:55.307Z,100803.48
2022-11-14T23:51:23.790Z,100801.73
2022-11-14T23:53:52.178Z,100801.17
2022-11-14T23:56:20.420Z,100800.52
2022-11-14T23:58:48.507Z,100792.19
